Time;durP1;ratioP1;P1;durP2;ratioP2;P2;SDS_P1;SDS_P2;PMS_P1;PMS_P2;Temp;Humidity;BMP_temperature;BMP_pressure;BME280_temperature;BME280_humidity;BME280_pressure;Samples;Min_cycle;Max_cycle;Signal;HPM_P1;HPM_P2
2022/05/30 00:00:11;;;;;;;;;;;;;;;21.43;30.87;97127.09;4993978;28;1993;-74
2022/05/30 00:02:37;;;;;;;;;;;;;;;21.69;30.90;97122.00;4997073;28;999;-74
2022/05/30 00:05:03;;;;;;;;;;;;;;;21.84;30.71;97137.16;4997122;28;946;-74
2022/05/30 00:07:28;;;;;;;;;;;;;;;21.65;30.73;97137.53;4980775;28;1062;-74
2022/05/30 00:09:54;;;;;;;;;;;;;;;21.59;30.84;97145.88;4996998;28;959;-75
2022/05/30 00:12:20;;;;;;;;;;;;;;;21.31;31.23;97137.25;4996886;28;965;-75
2022/05/30 00:14:45;;;;;;;;;;;;;;;21.49;30.72;97135.75;4996785;28;961;-74
2022/05/30 00:17:11;;;;;;;;;;;;;;;21.30;30.80;97137.72;4980250;28;974;-75
2022/05/30 00:19:37;;;;;;;;;;;;;;;21.32;30.78;97147.31;4996941;28;1015;-75
2022/05/30 00:22:03;;;;;;;;;;;;;;;21.50;30.55;97143.00;5044513;28;1981;-75
2022/05/30 00:24:28;;;;;;;;;;;;;;;21.38;30.55;97138.22;5038691;28;919;-75
2022/05/30 00:26:53;;;;;;;;;;;;;;;21.38;30.93;97136.19;5038300;28;971;-74
2022/05/30 00:29:19;;;;;;;;;;;;;;;21.25;31.19;97132.66;5053754;28;929;-74
2022/05/30 00:31:45;;;;;;;;;;;;;;;21.30;31.01;97135.69;5038716;28;920;-74
2022/05/30 00:34:10;;;;;;;;;;;;;;;21.29;31.02;97133.28;5038514;28;928;-75
2022/05/30 00:36:37;;;;;;;;;;;;;;;21.17;31.11;97132.13;5038368;28;920;-74
2022/05/30 00:39:03;;;;;;;;;;;;;;;21.07;31.38;97122.00;5038003;28;1001;-75
2022/05/30 00:41:28;;;;;;;;;;;;;;;21.22;31.23;97110.94;5037823;28;1902;-75
2022/05/30 00:43:54;;;;;;;;;;;;;;;21.24;30.74;97108.41;5038168;28;975;-75
2022/05/30 00:46:19;;;;;;;;;;;;;;;21.24;30.83;97108.41;5038327;28;949;-75
2022/05/30 00:48:48;;;;;;;;;;;;;;;21.30;30.85;97112.25;5038038;28;965;-74
2022/05/30 00:51:15;;;;;;;;;;;;;;;21.11;30.89;97108.50;5020331;28;1287;-75
2022/05/30 00:53:41;;;;;;;;;;;;;;;21.15;30.91;97106.34;5035618;28;1031;-75
2022/05/30 00:56:08;;;;;;;;;;;;;;;21.45;31.34;97095.47;5036612;28;1720;-74
2022/05/30 00:58:34;;;;;;;;;;;;;;;21.74;31.43;97101.56;5037667;28;960;-75
2022/05/30 01:01:00;;;;;;;;;;;;;;;21.83;31.02;97093.09;4979635;28;1903;-75
2022/05/30 01:08:53;;;;;;;;;;;;;;;21.55;30.97;97099.91;4982077;28;1072;-75
2022/05/30 01:11:19;;;;;;;;;;;;;;;21.30;31.23;97090.41;4978917;28;981;-75
2022/05/30 01:13:44;;;;;;;;;;;;;;;21.37;30.71;97094.22;4995534;28;1273;-75
2022/05/30 01:16:10;;;;;;;;;;;;;;;21.54;30.84;97084.19;4946897;28;1360;-75
2022/05/30 01:18:36;;;;;;;;;;;;;;;21.39;30.76;97074.72;4995616;28;1267;-75
2022/05/30 01:21:20;;;;;;;;;;;;;;;21.27;30.97;97063.00;4979439;28;1966;-74
2022/05/30 01:24:02;;;;;;;;;;;;;;;21.29;30.93;97083.13;4979150;28;1428;-75
2022/05/30 01:26:51;;;;;;;;;;;;;;;21.42;31.04;97090.78;4995398;28;1066;-75
2022/05/30 01:29:43;;;;;;;;;;;;;;;21.39;30.63;97081.16;4979262;28;1208;-75
2022/05/30 01:32:08;;;;;;;;;;;;;;;21.25;30.97;97085.34;4924028;29;1142;-75
2022/05/30 01:34:34;;;;;;;;;;;;;;;21.19;30.94;97090.03;4956785;29;1085;-75
2022/05/30 01:36:59;;;;;;;;;;;;;;;21.19;30.93;97084.38;4972509;28;1229;-74
2022/05/30 01:39:31;;;;;;;;;;;;;;;21.21;31.06;97081.06;4956667;29;1006;-74
2022/05/30 01:41:57;;;;;;;;;;;;;;;21.31;30.74;97080.66;4972501;28;1923;-75
2022/05/30 01:44:23;;;;;;;;;;;;;;;21.30;30.78;97090.41;4956497;29;1132;-74
2022/05/30 01:46:49;;;;;;;;;;;;;;;21.32;30.54;97076.56;4956528;29;1091;-75
2022/05/30 01:49:15;;;;;;;;;;;;;;;21.20;30.98;97080.28;4956364;29;1078;-75
2022/05/30 01:51:40;;;;;;;;;;;;;;;21.19;30.86;97078.72;4956252;29;1096;-75
2022/05/30 01:54:08;;;;;;;;;;;;;;;21.32;30.46;97070.91;4972299;28;1097;-75
2022/05/30 01:57:02;;;;;;;;;;;;;;;21.16;31.00;97071.13;4936876;29;1378;-75
2022/05/30 01:59:33;;;;;;;;;;;;;;;21.14;30.96;97076.47;4937444;29;1486;-74
2022/05/30 02:02:19;;;;;;;;;;;;;;;21.43;30.90;97081.81;4956025;29;1910;-75
2022/05/30 02:04:44;;;;;;;;;;;;;;;21.78;30.89;97090.88;4956113;29;1144;-75
2022/05/30 02:07:10;;;;;;;;;;;;;;;21.85;30.74;97079.25;4940079;29;1001;-75
2022/05/30 02:09:36;;;;;;;;;;;;;;;21.71;30.73;97096.84;4966351;28;1248;-75
2022/05/30 02:12:01;;;;;;;;;;;;;;;21.53;30.77;97091.13;4943131;28;1225;-75
2022/05/30 02:14:44;;;;;;;;;;;;;;;21.38;30.87;97090.13;4944880;28;1141;-75
2022/05/30 02:17:10;;;;;;;;;;;;;;;21.29;30.90;97094.44;4955782;29;993;-75
2022/05/30 02:19:37;;;;;;;;;;;;;;;21.33;31.00;97100.78;4939793;29;1176;-75
2022/05/30 02:22:12;;;;;;;;;;;;;;;21.36;30.80;97104.75;4939361;29;1981;-75
2022/05/30 02:24:38;;;;;;;;;;;;;;;21.40;30.57;97110.25;4939452;29;1180;-75
2022/05/30 02:27:04;;;;;;;;;;;;;;;21.40;30.76;97096.09;4925175;29;1237;-75
2022/05/30 02:29:30;;;;;;;;;;;;;;;21.33;30.72;97100.78;4898679;29;1281;-75
2022/05/30 02:31:58;;;;;;;;;;;;;;;21.24;30.97;97097.91;4898500;29;1349;-75
2022/05/30 02:37:08;;;;;;;;;;;;;;;21.34;30.77;97101.56;4914345;29;1235;-75
2022/05/30 02:39:34;;;;;;;;;;;;;;;21.39;30.59;97097.34;4901424;29;974;-75
2022/05/30 02:42:18;;;;;;;;;;;;;;;21.28;30.68;97098.53;4917147;29;1907;-75
2022/05/30 02:44:44;;;;;;;;;;;;;;;21.25;30.63;97105.13;4917322;29;1085;-74
2022/05/30 02:47:11;;;;;;;;;;;;;;;21.24;30.67;97106.41;4941816;28;1265;-75
2022/05/30 02:49:41;;;;;;;;;;;;;;;21.11;30.91;97111.34;5010589;28;1199;-75
2022/05/30 02:52:07;;;;;;;;;;;;;;;21.25;30.74;97110.78;4993923;28;1106;-75
2022/05/30 02:54:32;;;;;;;;;;;;;;;21.25;30.48;97119.28;5010539;28;1115;-75
2022/05/30 02:57:26;;;;;;;;;;;;;;;21.17;30.63;97120.81;4965676;28;1245;-75
2022/05/30 02:59:52;;;;;;;;;;;;;;;21.14;30.76;97124.56;4994085;28;998;-75
2022/05/30 03:02:17;;;;;;;;;;;;;;;21.20;30.86;97124.75;4954823;28;1906;-75
2022/05/30 03:04:44;;;;;;;;;;;;;;;21.32;30.57;97127.50;4961799;28;1072;-75
2022/05/30 03:07:10;;;;;;;;;;;;;;;21.15;30.83;97116.88;4993739;28;1080;-75
2022/05/30 03:09:36;;;;;;;;;;;;;;;21.27;30.43;97125.25;4993791;28;962;-75
2022/05/30 03:12:20;;;;;;;;;;;;;;;21.55;31.14;97122.56;4979807;28;1033;-75
2022/05/30 03:14:46;;;;;;;;;;;;;;;21.76;30.88;97120.91;4954715;28;1303;-75
2022/05/30 03:17:11;;;;;;;;;;;;;;;21.88;30.42;97131.34;4954936;28;1217;-74
2022/05/30 03:19:40;;;;;;;;;;;;;;;21.57;30.77;97125.75;4938704;29;1352;-75
2022/05/30 03:22:06;;;;;;;;;;;;;;;21.48;30.50;97129.31;4938615;29;1910;-74
2022/05/30 03:24:44;;;;;;;;;;;;;;;21.47;30.28;97132.63;4940276;28;1199;-75
2022/05/30 03:27:10;;;;;;;;;;;;;;;21.37;30.64;97133.81;4948612;28;1164;-75
2022/05/30 03:29:36;;;;;;;;;;;;;;;21.38;30.12;97139.00;4868547;29;1462;-75
2022/05/30 03:32:01;;;;;;;;;;;;;;;21.21;30.68;97132.78;4854333;29;2295;-75
2022/05/30 03:34:27;;;;;;;;;;;;;;;21.22;30.43;97140.00;4861580;29;1257;-75
2022/05/30 03:36:54;;;;;;;;;;;;;;;21.18;30.74;97138.56;4900061;29;1669;-75
2022/05/30 03:39:31;;;;;;;;;;;;;;;21.26;30.42;97143.50;4903221;29;1608;-74
2022/05/30 03:42:14;;;;;;;;;;;;;;;21.03;30.91;97144.75;4882816;29;1968;-75
2022/05/30 03:44:46;;;;;;;;;;;;;;;21.26;30.68;97142.69;4901519;29;1979;-75
2022/05/30 03:47:13;;;;;;;;;;;;;;;21.25;30.56;97138.31;4904802;29;1130;-75
2022/05/30 03:49:39;;;;;;;;;;;;;;;21.27;30.36;97153.56;4882381;29;1260;-74
2022/05/30 03:52:04;;;;;;;;;;;;;;;21.23;30.50;97138.75;4884110;29;987;-75
2022/05/30 03:54:30;;;;;;;;;;;;;;;21.65;30.41;97152.50;4901132;29;1082;-75
2022/05/30 03:56:56;;;;;;;;;;;;;;;21.82;30.24;97153.81;4900961;29;1582;-75
2022/05/30 03:59:21;;;;;;;;;;;;;;;21.96;29.94;97149.59;4916425;29;2727;-74
2022/05/30 04:01:47;;;;;;;;;;;;;;;21.67;30.26;97158.50;4973356;28;1985;-75
2022/05/30 04:04:13;;;;;;;;;;;;;;;21.54;30.48;97150.09;4941899;29;1231;-75
2022/05/30 04:06:39;;;;;;;;;;;;;;;21.40;30.59;97150.66;4958070;29;1070;-75
2022/05/30 04:09:04;;;;;;;;;;;;;;;21.31;30.78;97151.41;4938896;29;929;-74
2022/05/30 04:11:56;;;;;;;;;;;;;;;21.14;30.80;97161.34;4937996;29;2223;-75
2022/05/30 04:14:41;;;;;;;;;;;;;;;21.23;30.49;97147.22;4919459;29;1111;-75
2022/05/30 04:17:14;;;;;;;;;;;;;;;21.28;30.55;97149.47;4919136;29;1647;-75
2022/05/30 04:19:40;;;;;;;;;;;;;;;21.27;30.38;97147.88;4931393;29;1524;-75
2022/05/30 04:22:06;;;;;;;;;;;;;;;21.28;30.43;97137.34;4882204;29;1978;-75
2022/05/30 04:24:48;;;;;;;;;;;;;;;21.26;30.73;97128.56;4900698;29;1179;-75
2022/05/30 04:27:13;;;;;;;;;;;;;;;20.84;30.66;97068.78;4899064;29;1596;-75
2022/05/30 04:29:39;;;;;;;;;;;;;;;21.20;30.66;97130.41;4919288;29;1428;-75
2022/05/30 04:32:19;;;;;;;;;;;;;;;21.18;30.63;97133.69;4900511;29;1388;-75
2022/05/30 04:34:44;;;;;;;;;;;;;;;21.31;30.79;97125.94;4900335;29;1049;-75
2022/05/30 04:37:11;;;;;;;;;;;;;;;21.31;30.53;97128.78;4900075;29;1130;-75
2022/05/30 04:39:40;;;;;;;;;;;;;;;21.26;30.61;97135.00;4863047;29;1288;-75
2022/05/30 04:42:24;;;;;;;;;;;;;;;21.23;30.76;97141.56;4843255;29;2308;-75
2022/05/30 04:45:08;;;;;;;;;;;;;;;21.43;31.33;97143.28;4844610;29;989;-75
2022/05/30 04:47:50;;;;;;;;;;;;;;;21.77;30.68;97145.94;4823396;29;1454;-75
2022/05/30 04:50:16;;;;;;;;;;;;;;;21.96;30.20;97145.97;4844454;29;1496;-75
2022/05/30 04:52:43;;;;;;;;;;;;;;;21.59;30.97;97152.31;4860411;29;1643;-75
2022/05/30 04:55:28;;;;;;;;;;;;;;;21.43;31.17;97148.94;4881271;29;1720;-75
2022/05/30 04:57:55;;;;;;;;;;;;;;;21.33;31.43;97145.28;4893914;29;1905;-75
2022/05/30 05:00:41;;;;;;;;;;;;;;;21.26;31.28;97165.34;4894327;29;1907;-75
2022/05/30 05:03:08;;;;;;;;;;;;;;;21.25;31.24;97150.41;4928917;29;1412;-75
2022/05/30 05:05:33;;;;;;;;;;;;;;;21.20;31.38;97164.38;4918920;29;1068;-75
2022/05/30 05:08:00;;;;;;;;;;;;;;;21.22;31.10;97178.81;4902373;29;1860;-75
2022/05/30 05:10:41;;;;;;;;;;;;;;;21.22;31.16;97176.78;4884602;29;1807;-75
2022/05/30 05:13:39;;;;;;;;;;;;;;;21.27;31.21;97170.53;4883696;29;1963;-75
2022/05/30 05:16:24;;;;;;;;;;;;;;;21.13;31.68;97171.06;4886645;29;984;-75
2022/05/30 05:18:50;;;;;;;;;;;;;;;21.40;30.78;97166.84;4899837;29;980;-75
2022/05/30 05:21:19;;;;;;;;;;;;;;;21.36;30.72;97178.31;4880984;29;1911;-75
2022/05/30 05:23:44;;;;;;;;;;;;;;;21.16;31.27;97175.81;4862380;29;1063;-75
2022/05/30 05:26:10;;;;;;;;;;;;;;;21.20;31.01;97176.47;4810174;29;1427;-75
2022/05/30 05:29:01;;;;;;;;;;;;;;;21.22;31.27;97190.94;4834659;29;1020;-75
2022/05/30 05:31:33;;;;;;;;;;;;;;;21.27;31.04;97203.69;4789155;30;1255;-75
2022/05/30 05:33:58;;;;;;;;;;;;;;;21.15;31.27;97211.00;4788031;30;1659;-75
2022/05/30 05:36:26;;;;;;;;;;;;;;;21.31;30.75;97221.34;4796928;29;1147;-75
2022/05/30 05:38:52;;;;;;;;;;;;;;;21.17;31.39;97227.50;4803221;29;1561;-75
2022/05/30 05:41:41;;;;;;;;;;;;;;;21.35;30.70;97227.69;4735319;30;1974;-75
2022/05/30 05:44:09;;;;;;;;;;;;;;;21.28;30.83;97237.19;4735037;30;1643;-75
2022/05/30 05:46:35;;;;;;;;;;;;;;;21.36;30.77;97240.56;4753358;30;1141;-75
2022/05/30 05:49:01;;;;;;;;;;;;;;;21.35;30.75;97243.84;4753283;30;1619;-75
2022/05/30 05:51:27;;;;;;;;;;;;;;;21.21;31.02;97234.63;4699507;30;1533;-75
2022/05/30 05:53:56;;;;;;;;;;;;;;;21.33;30.91;97236.59;4666691;30;1691;-75
2022/05/30 05:56:26;;;;;;;;;;;;;;;21.32;30.93;97240.69;4668660;30;1865;-75
2022/05/30 05:58:52;;;;;;;;;;;;;;;21.40;30.90;97252.56;4655869;30;2168;-76
2022/05/30 06:01:22;;;;;;;;;;;;;;;21.21;31.11;97257.25;4647686;30;2292;-75
2022/05/30 06:03:47;;;;;;;;;;;;;;;21.27;30.86;97244.09;4684170;30;2352;-75
2022/05/30 06:06:31;;;;;;;;;;;;;;;21.22;31.23;97258.81;4665984;30;951;-75
2022/05/30 06:09:01;;;;;;;;;;;;;;;21.26;30.88;97253.03;4664997;30;2266;-75
2022/05/30 06:11:47;;;;;;;;;;;;;;;21.27;30.66;97254.63;4676761;30;1101;-75
2022/05/30 06:14:13;;;;;;;;;;;;;;;21.31;30.55;97260.97;4685072;30;1355;-75
2022/05/30 06:16:40;;;;;;;;;;;;;;;21.12;31.29;97254.34;4699633;30;1975;-75
2022/05/30 06:19:09;;;;;;;;;;;;;;;21.28;30.81;97259.81;4722618;30;2182;-75
2022/05/30 06:21:34;;;;;;;;;;;;;;;21.29;30.76;97261.38;4736891;30;2362;-75
2022/05/30 06:24:00;;;;;;;;;;;;;;;21.21;30.88;97257.25;4770085;30;1464;-75
2022/05/30 06:26:44;;;;;;;;;;;;;;;21.26;30.64;97253.84;4770387;30;1088;-75
2022/05/30 06:29:39;;;;;;;;;;;;;;;21.20;31.08;97261.34;4778483;29;1926;-74
2022/05/30 06:32:06;;;;;;;;;;;;;;;21.25;30.76;97255.09;4769519;30;2273;-76
2022/05/30 06:34:52;;;;;;;;;;;;;;;21.31;30.55;97260.97;4718838;30;2101;-75
2022/05/30 06:37:17;;;;;;;;;;;;;;;21.36;30.45;97271.69;4735496;30;1171;-75
2022/05/30 06:39:43;;;;;;;;;;;;;;;21.39;30.37;97278.47;4754431;30;2149;-75
2022/05/30 06:42:21;;;;;;;;;;;;;;;21.29;30.67;97281.19;4766364;30;1908;-75
2022/05/30 06:45:06;;;;;;;;;;;;;;;21.26;30.55;97282.13;4777662;29;988;-75
2022/05/30 06:47:50;;;;;;;;;;;;;;;21.25;30.83;97303.19;4787851;29;1116;-75
2022/05/30 06:50:34;;;;;;;;;;;;;;;21.39;30.61;97301.09;4772103;29;2050;-75
2022/05/30 06:52:59;;;;;;;;;;;;;;;21.36;30.37;97307.69;4768418;30;1936;-75
2022/05/30 06:55:25;;;;;;;;;;;;;;;21.29;30.73;97308.69;4756294;30;2186;-75
2022/05/30 07:00:35;;;;;;;;;;;;;;;21.26;31.03;97309.63;4818741;29;1900;-75
2022/05/30 07:03:19;;;;;;;;;;;;;;;21.38;30.57;97322.16;4836210;29;1794;-75
2022/05/30 07:06:07;;;;;;;;;;;;;;;21.47;30.73;97313.75;4862536;29;989;-74
2022/05/30 07:08:51;;;;;;;;;;;;;;;21.29;31.06;97312.31;4901306;29;1040;-75
2022/05/30 07:11:49;;;;;;;;;;;;;;;21.31;31.13;97320.41;4874304;29;2111;-75
2022/05/30 07:14:17;;;;;;;;;;;;;;;21.44;31.20;97314.66;4843993;29;1990;-74
2022/05/30 07:16:43;;;;;;;;;;;;;;;21.44;31.21;97323.16;4860455;29;962;-75
2022/05/30 07:19:09;;;;;;;;;;;;;;;21.46;32.02;97334.81;4844882;29;1014;-75
2022/05/30 07:21:39;;;;;;;;;;;;;;;21.44;31.81;97326.78;4826745;29;1895;-75
2022/05/30 07:24:23;;;;;;;;;;;;;;;21.52;32.01;97333.75;4853102;29;2129;-75
2022/05/30 07:26:51;;;;;;;;;;;;;;;21.59;32.32;97349.69;4859621;29;1839;-75
2022/05/30 07:30:04;;;;;;;;;;;;;;;22.39;32.37;97325.63;5197473;22;1950;-75
2022/05/30 07:32:49;;;;;;;;;;;;;;;22.92;34.34;97339.66;5148384;23;3686;-77
2022/05/30 07:35:33;;;;;;;;;;;;;;;22.59;35.49;97346.63;4996780;28;966;-77
2022/05/30 07:38:17;;;;;;;;;;;;;;;22.00;36.13;97345.69;5007111;28;1849;-76
2022/05/30 07:41:06;;;;;;;;;;;;;;;21.77;35.90;97349.81;4956184;29;1975;-76
2022/05/30 07:43:46;;;;;;;;;;;;;;;21.76;35.52;97353.09;4955509;29;1457;-76
2022/05/30 07:49:23;;;;;;;;;;;;;;;22.44;35.08;97371.16;5164033;23;2141;-76
2022/05/30 07:51:58;;;;;;;;;;;;;;;22.95;36.17;97375.59;5138444;23;4063;-75
2022/05/30 07:54:34;;;;;;;;;;;;;;;23.15;37.43;97373.09;5016207;28;968;-75
2022/05/30 07:57:06;;;;;;;;;;;;;;;22.50;37.71;97371.34;4993474;28;1501;-75
2022/05/30 07:59:31;;;;;;;;;;;;;;;22.10;37.10;97372.88;4971735;28;1812;-75
2022/05/30 08:01:57;;;;;;;;;;;;;;;22.04;35.91;97368.25;4954965;29;1926;-75
2022/05/30 08:04:24;;;;;;;;;;;;;;;21.81;35.67;97370.31;4919053;29;1601;-75
2022/05/30 08:07:09;;;;;;;;;;;;;;;21.63;34.83;97339.03;4877239;29;2016;-75
2022/05/30 08:09:44;;;;;;;;;;;;;;;21.79;34.01;97378.47;4878863;29;2203;-75
2022/05/30 08:12:12;;;;;;;;;;;;;;;21.65;33.53;97376.16;4864361;29;1935;-75
2022/05/30 08:14:55;;;;;;;;;;;;;;;21.65;33.12;97370.47;4879999;29;980;-75
2022/05/30 08:17:23;;;;;;;;;;;;;;;21.69;32.37;97365.50;4882140;29;1161;-75
2022/05/30 08:19:49;;;;;;;;;;;;;;;21.71;32.24;97371.50;4822212;29;2393;-75
2022/05/30 08:22:16;;;;;;;;;;;;;;;21.64;31.60;97368.91;4852838;29;2716;-75
2022/05/30 08:24:43;;;;;;;;;;;;;;;21.62;31.65;97365.75;4826487;29;2151;-75
2022/05/30 08:27:13;;;;;;;;;;;;;;;21.57;31.53;97358.66;4823697;29;2470;-74
2022/05/30 08:29:52;;;;;;;;;;;;;;;21.54;31.57;97365.22;4790207;29;2459;-75
2022/05/30 08:32:18;;;;;;;;;;;;;;;21.64;31.13;97357.59;4808227;29;2198;-75
2022/05/30 08:34:55;;;;;;;;;;;;;;;21.50;30.78;97375.09;4767666;30;2265;-75
2022/05/30 08:37:22;;;;;;;;;;;;;;;21.56;30.46;97367.59;4750147;30;2016;-75
2022/05/30 08:42:33;;;;;;;;;;;;;;;21.61;30.23;97375.50;4753130;30;1964;-75
2022/05/30 08:45:18;;;;;;;;;;;;;;;21.40;30.75;97364.94;4761560;29;2231;-75
2022/05/30 08:48:13;;;;;;;;;;;;;;;21.42;30.62;97373.78;4827125;29;2328;-75
2022/05/30 08:50:44;;;;;;;;;;;;;;;21.32;30.67;97376.53;4774916;30;2028;-75
2022/05/30 08:53:09;;;;;;;;;;;;;;;21.33;30.72;97371.66;4783580;30;1337;-75
2022/05/30 08:55:40;;;;;;;;;;;;;;;21.49;30.06;97373.50;4790635;29;1960;-75
2022/05/30 08:58:24;;;;;;;;;;;;;;;21.36;30.36;97372.78;4824202;29;1226;-75
2022/05/30 09:00:51;;;;;;;;;;;;;;;21.35;30.31;97379.66;4826313;29;2571;-75
2022/05/30 09:03:38;;;;;;;;;;;;;;;21.35;30.22;97374.00;4855992;29;2482;-75
2022/05/30 09:06:06;;;;;;;;;;;;;;;21.52;30.93;97378.25;4863604;29;1512;-75
2022/05/30 09:08:37;;;;;;;;;;;;;;;21.83;31.18;97370.63;4863507;29;1402;-75
2022/05/30 09:11:33;;;;;;;;;;;;;;;21.90;31.38;97374.44;4872839;29;956;-75
2022/05/30 09:14:03;;;;;;;;;;;;;;;22.03;31.25;97380.81;4900157;29;2029;-75
2022/05/30 09:16:39;;;;;;;;;;;;;;;21.89;32.04;97395.53;4885478;29;1196;-75
2022/05/30 09:19:12;;;;;;;;;;;;;;;21.57;31.72;97397.50;4866544;29;1454;-75
2022/05/30 09:21:39;;;;;;;;;;;;;;;21.55;31.67;97394.31;4863115;29;1907;-75
2022/05/30 09:24:05;;;;;;;;;;;;;;;21.41;31.53;97389.19;4878118;29;2310;-75
2022/05/30 09:26:33;;;;;;;;;;;;;;;21.37;31.61;97394.16;4844065;29;2344;-75
2022/05/30 09:29:18;;;;;;;;;;;;;;;21.36;31.26;97396.22;4807400;29;2074;-75
2022/05/30 09:32:25;;;;;;;;;;;;;;;21.34;31.21;97401.53;4796787;29;1936;-75
2022/05/30 09:35:18;;;;;;;;;;;;;;;21.41;30.91;97400.50;4826020;29;2615;-75
2022/05/30 09:38:19;;;;;;;;;;;;;;;21.27;31.14;97402.53;4778038;30;2322;-75
2022/05/30 09:41:12;;;;;;;;;;;;;;;21.27;30.90;97408.19;4768283;30;1905;-75
2022/05/30 09:43:51;;;;;;;;;;;;;;;21.21;30.65;97415.69;4768099;30;1203;-75
2022/05/30 09:46:45;;;;;;;;;;;;;;;21.11;30.76;97416.06;4771671;30;1261;-75
2022/05/30 09:49:14;;;;;;;;;;;;;;;21.23;30.69;97416.00;4701329;30;2271;-75
2022/05/30 09:51:41;;;;;;;;;;;;;;;21.76;30.31;97421.88;4703259;30;1387;-75
2022/05/30 09:54:28;;;;;;;;;;;;;;;21.93;30.17;97435.84;4704597;30;1143;-75
2022/05/30 09:57:06;;;;;;;;;;;;;;;21.85;30.45;97438.91;4715413;30;1286;-75
2022/05/30 09:59:52;;;;;;;;;;;;;;;21.63;30.65;97435.28;4679308;30;2086;-75
2022/05/30 10:02:31;;;;;;;;;;;;;;;21.55;30.77;97429.09;4681406;30;1924;-75
2022/05/30 10:05:01;;;;;;;;;;;;;;;21.36;30.76;97438.66;4733166;30;1706;-75
2022/05/30 10:07:28;;;;;;;;;;;;;;;21.23;30.61;97447.13;4720013;30;1552;-75
2022/05/30 10:10:27;;;;;;;;;;;;;;;21.30;30.49;97446.94;4683261;30;1575;-75
2022/05/30 10:13:02;;;;;;;;;;;;;;;21.39;30.08;97436.94;4696500;30;1262;-74
2022/05/30 10:15:54;;;;;;;;;;;;;;;21.14;30.38;97444.22;4710476;30;1984;-75
2022/05/30 10:18:48;;;;;;;;;;;;;;;21.14;30.61;97438.56;4740994;30;2323;-75
2022/05/30 10:21:17;;;;;;;;;;;;;;;21.23;30.03;97452.78;4753800;30;1895;-75
2022/05/30 10:30:38;;;;;;;;;;;;;;;21.75;29.80;97447.81;4728704;30;1830;-75
2022/05/30 10:33:44;;;;;;;;;;;;;;;21.97;29.82;97448.63;4736118;30;1155;-75
2022/05/30 10:36:15;;;;;;;;;;;;;;;21.55;30.09;97440.41;4733599;30;1375;-75
2022/05/30 10:38:44;;;;;;;;;;;;;;;21.51;30.19;97444.63;4732563;30;2264;-75
2022/05/30 10:41:10;;;;;;;;;;;;;;;21.16;30.77;97453.03;4733123;30;1994;-75
2022/05/30 10:43:36;;;;;;;;;;;;;;;21.32;30.33;97455.75;4750334;30;1306;-75
2022/05/30 10:46:12;;;;;;;;;;;;;;;21.31;30.07;97454.19;4748993;30;1189;-75
2022/05/30 10:48:54;;;;;;;;;;;;;;;21.24;30.35;97454.41;4777928;29;2311;-75
2022/05/30 10:51:23;;;;;;;;;;;;;;;21.26;29.86;97457.56;4806943;29;1215;-75
2022/05/30 10:54:03;;;;;;;;;;;;;;;21.14;29.85;97455.56;4789039;29;1327;-75
2022/05/30 10:56:50;;;;;;;;;;;;;;;21.13;29.88;97450.31;4789221;29;1331;-75
2022/05/30 10:59:32;;;;;;;;;;;;;;;21.13;30.26;97459.59;4787316;30;2313;-75
2022/05/30 11:02:05;;;;;;;;;;;;;;;21.25;30.02;97449.53;4788621;29;1969;-75
2022/05/30 11:04:48;;;;;;;;;;;;;;;21.54;29.59;97443.69;4785023;29;2333;-75
2022/05/30 11:07:24;;;;;;;;;;;;;;;21.89;28.97;97446.50;4780577;29;1191;-75
2022/05/30 11:09:54;;;;;;;;;;;;;;;21.90;28.87;97457.38;4803907;29;1123;-75
2022/05/30 11:15:06;;;;;;;;;;;;;;;22.53;29.38;97441.25;4952766;29;1772;-72
2022/05/30 11:18:10;;;;;;;;;;;;;;;22.86;30.45;97450.88;5019665;23;1206113;-74
2022/05/30 11:21:09;;;;;;;;;;;;;;;22.29;32.59;97458.78;4936633;29;1903;-74
2022/05/30 11:23:37;;;;;;;;;;;;;;;21.94;33.34;97460.06;4921376;29;1216;-75
2022/05/30 11:26:08;;;;;;;;;;;;;;;21.75;33.13;97459.13;4954505;29;1545;-74
2022/05/30 11:28:39;;;;;;;;;;;;;;;21.66;33.32;97454.19;4938738;29;1648;-75
2022/05/30 11:31:16;;;;;;;;;;;;;;;21.65;33.00;97461.09;4955903;29;1207;-74
2022/05/30 11:33:47;;;;;;;;;;;;;;;21.69;32.60;97458.94;4936668;29;1065;-74
2022/05/30 11:36:15;;;;;;;;;;;;;;;21.59;32.39;97460.09;4916481;29;1713;-74
2022/05/30 11:38:59;;;;;;;;;;;;;;;21.45;32.42;97458.56;4918075;29;940;-74
2022/05/30 11:41:46;;;;;;;;;;;;;;;21.64;32.00;97459.50;4917746;29;2356;-74
2022/05/30 11:44:12;;;;;;;;;;;;;;;21.62;32.03;97467.69;4901942;29;996;-74
2022/05/30 11:46:38;;;;;;;;;;;;;;;21.55;32.09;97462.25;4916527;29;1694;-74
2022/05/30 11:49:04;;;;;;;;;;;;;;;21.55;31.59;97462.25;4898536;29;905;-74
2022/05/30 11:51:41;;;;;;;;;;;;;;;21.37;31.76;97467.75;4898706;29;1018;-77
2022/05/30 11:54:29;;;;;;;;;;;;;;;21.49;31.41;97469.75;4898060;29;1692;-77
2022/05/30 11:56:57;;;;;;;;;;;;;;;21.50;31.47;97476.97;4915760;29;1784;-77
2022/05/30 11:59:23;;;;;;;;;;;;;;;21.57;31.03;97477.53;4901741;29;1593;-77
2022/05/30 12:01:49;;;;;;;;;;;;;;;21.48;31.14;97477.44;4902714;29;1988;-77
2022/05/30 12:04:15;;;;;;;;;;;;;;;21.39;31.47;97476.56;4908598;29;1118;-77
2022/05/30 12:06:46;;;;;;;;;;;;;;;21.57;31.23;97477.53;4920761;29;1000;-76
2022/05/30 12:09:12;;;;;;;;;;;;;;;21.41;30.99;97476.91;4915560;29;1812;-77
2022/05/30 12:11:43;;;;;;;;;;;;;;;21.40;31.25;97478.13;4902217;29;1120;-76
2022/05/30 12:14:09;;;;;;;;;;;;;;;21.40;31.18;97484.63;4925390;29;1769;-76
2022/05/30 12:16:34;;;;;;;;;;;;;;;21.37;31.20;97473.41;4921785;29;1829;-77
2022/05/30 12:24:39;;;;;;;;;;;;;;;21.30;31.19;97475.25;4901092;29;1589;-77
2022/05/30 12:27:06;;;;;;;;;;;;;;;21.44;30.79;97478.81;4912827;29;1004;-77
2022/05/30 12:29:31;;;;;;;;;;;;;;;21.42;31.16;97484.16;4917832;29;1311;-77
2022/05/30 12:32:11;;;;;;;;;;;;;;;21.25;31.16;97495.59;4939545;29;1063;-77
2022/05/30 12:34:55;;;;;;;;;;;;;;;21.26;31.28;97491.50;4937398;29;1757;-76
2022/05/30 12:37:41;;;;;;;;;;;;;;;21.32;30.92;97492.53;4939484;29;968;-77
2022/05/30 12:40:19;;;;;;;;;;;;;;;21.44;30.82;97490.13;4939644;29;941;-76
2022/05/30 12:42:44;;;;;;;;;;;;;;;21.29;31.01;97489.78;4954664;29;1914;-77
2022/05/30 12:45:16;;;;;;;;;;;;;;;21.38;30.60;97489.13;4977738;28;1032;-76
2022/05/30 12:47:46;;;;;;;;;;;;;;;21.40;30.70;97490.28;4977976;28;1056;-77
2022/05/30 12:50:13;;;;;;;;;;;;;;;21.49;30.51;97492.41;4939146;29;1249;-77
2022/05/30 12:52:39;;;;;;;;;;;;;;;21.35;30.61;97488.03;4899213;29;1703;-77
2022/05/30 12:55:08;;;;;;;;;;;;;;;21.36;30.78;97488.81;4920481;29;960;-77
2022/05/30 12:57:34;;;;;;;;;;;;;;;21.44;30.58;97501.47;4920602;29;976;-77
2022/05/30 13:00:04;;;;;;;;;;;;;;;21.38;30.63;97503.28;4920772;29;1108;-76
2022/05/30 13:02:45;;;;;;;;;;;;;;;21.49;30.52;97498.06;4882436;29;1888;-77
2022/05/30 13:05:15;;;;;;;;;;;;;;;21.45;30.75;97491.72;4899061;29;1626;-76
2022/05/30 13:07:41;;;;;;;;;;;;;;;21.43;30.33;97494.22;4844896;29;1114;-76
2022/05/30 13:10:07;;;;;;;;;;;;;;;21.41;30.43;97502.38;4845601;29;1020;-76
2022/05/30 13:12:56;;;;;;;;;;;;;;;21.31;30.81;97505.13;4845040;29;1535;-77
2022/05/30 13:15:27;;;;;;;;;;;;;;;21.30;30.83;97491.44;4789820;29;1732;-77
2022/05/30 13:17:53;;;;;;;;;;;;;;;21.40;30.76;97493.09;4808641;29;1134;-76
2022/05/30 13:20:23;;;;;;;;;;;;;;;21.37;30.59;97493.22;4813112;29;978;-76
2022/05/30 13:22:52;;;;;;;;;;;;;;;21.47;30.27;97489.25;4832912;29;1903;-76
2022/05/30 13:25:27;;;;;;;;;;;;;;;21.43;30.29;97494.22;4775753;30;971;-77
2022/05/30 13:27:52;;;;;;;;;;;;;;;21.33;30.26;97494.13;4790845;30;1020;-77
2022/05/30 13:30:23;;;;;;;;;;;;;;;21.35;30.47;97501.34;4790297;29;972;-77
2022/05/30 13:32:49;;;;;;;;;;;;;;;21.47;30.15;97494.91;4787123;29;1814;-76
2022/05/30 13:35:14;;;;;;;;;;;;;;;21.38;30.28;97497.63;4790462;30;1023;-77
2022/05/30 13:37:44;;;;;;;;;;;;;;;21.38;30.57;97497.63;4791771;29;1016;-76
2022/05/30 13:40:10;;;;;;;;;;;;;;;21.24;30.33;97499.69;4808491;29;937;-76
2022/05/30 13:42:49;;;;;;;;;;;;;;;21.40;30.41;97497.94;4808164;29;1915;-76
2022/05/30 13:45:16;;;;;;;;;;;;;;;21.44;30.12;97498.63;4835505;29;1019;-76
2022/05/30 13:47:41;;;;;;;;;;;;;;;21.39;30.46;97488.69;4881973;29;992;-77
2022/05/30 13:50:07;;;;;;;;;;;;;;;21.30;30.65;97489.38;4912981;29;989;-77
2022/05/30 13:52:32;;;;;;;;;;;;;;;21.40;30.20;97497.94;4922281;29;1003;-76
2022/05/30 13:54:58;;;;;;;;;;;;;;;21.94;30.51;97494.06;4937387;29;1648;-76
2022/05/30 13:57:26;;;;;;;;;;;;;;;22.07;30.72;97491.94;4938817;29;1005;-76